createdAt,value
2022-11-23T04:15:34.794Z,14.49
2022-11-23T04:49:37.349Z,14.89
2022-11-23T04:52:34.709Z,15.02
2022-11-23T04:58:47.287Z,15.27
2022-11-23T05:01:28.248Z,15.32
2022-11-23T05:04:03.694Z,15.30
2022-11-23T05:07:00.781Z,15.32
2022-11-23T05:10:11.609Z,15.30
2022-11-23T05:12:42.322Z,15.39
2022-11-23T05:15:30.651Z,15.44
2022-11-23T05:24:29.669Z,15.41
2022-11-23T05:27:26.547Z,15.46
2022-11-23T05:30:00.114Z,15.52
2022-11-23T05:32:36.392Z,15.53
2022-11-23T05:37:49.541Z,15.64
2022-11-23T05:40:20.377Z,15.69
2022-11-23T05:48:51.836Z,15.60
2022-11-23T05:51:55.386Z,15.50
2022-11-23T05:54:32.474Z,15.30
2022-11-23T05:57:25.964Z,15.25
2022-11-23T06:00:18.027Z,15.25
2022-11-23T06:13:49.474Z,15.59
2022-11-23T06:19:08.360Z,15.72
2022-11-23T06:21:50.871Z,15.83
2022-11-23T06:27:06.170Z,15.17
2022-11-23T06:29:42.738Z,14.73
2022-11-23T06:32:13.630Z,14.34
2022-11-23T06:34:51.491Z,14.00
2022-11-23T06:45:42.445Z,13.57
2022-11-23T06:59:48.692Z,13.73
2022-11-23T07:08:55.182Z,13.98
2022-11-23T07:26:27.125Z,14.66
2022-11-23T07:29:07.327Z,14.75
2022-11-23T08:11:05.746Z,15.43
2022-11-23T08:13:38.086Z,15.45
2022-11-23T08:19:05.982Z,15.59
2022-11-23T08:21:43.648Z,15.65
2022-11-23T08:24:20.275Z,15.68
2022-11-23T08:36:02.809Z,15.83
2022-11-23T08:41:21.377Z,15.96
2022-11-23T08:43:52.825Z,16.04
2022-11-23T08:52:46.298Z,16.07
2022-11-23T08:55:23.719Z,16.13
2022-11-23T08:58:25.898Z,16.14
2022-11-23T09:13:57.167Z,16.14
2022-11-23T09:19:32.232Z,16.07
2022-11-23T10:04:46.145Z,16.30
2022-11-23T10:18:08.731Z,16.59
2022-11-23T10:21:19.407Z,16.63
2022-11-23T10:24:14.086Z,16.59
2022-11-23T10:33:15.624Z,16.67
2022-11-23T10:38:51.272Z,16.67
2022-11-23T10:58:42.288Z,16.58
2022-11-23T11:04:58.636Z,16.44
2022-11-23T11:10:54.076Z,16.34
2022-11-23T11:13:44.283Z,16.37
2022-11-23T11:26:27.241Z,15.47
2022-11-23T11:29:17.907Z,15.55
2022-11-23T11:38:34.152Z,16.00
2022-11-23T11:44:07.546Z,16.32
2022-11-23T11:56:28.224Z,17.05
2022-11-23T12:02:12.787Z,17.24
2022-11-23T12:05:04.951Z,17.14
2022-11-23T12:13:58.020Z,17.02
2022-11-23T12:20:12.303Z,16.84
2022-11-23T12:23:07.298Z,16.77
2022-11-23T12:25:44.101Z,16.74
2022-11-23T12:29:19.426Z,16.77
2022-11-23T12:31:55.669Z,16.78
2022-11-23T12:34:49.510Z,16.77
2022-11-23T12:45:02.658Z,16.93
2022-11-23T12:48:14.156Z,17.14
2022-11-23T12:51:08.624Z,17.30
2022-11-23T12:54:16.155Z,17.35
2022-11-23T12:57:16.655Z,17.39
2022-11-23T13:06:31.257Z,17.54
2022-11-23T13:09:39.127Z,17.53
2022-11-23T13:12:43.225Z,17.53
2022-11-23T13:15:48.938Z,17.45
2022-11-23T13:28:07.743Z,17.48
2022-11-23T13:33:46.440Z,17.61
2022-11-23T13:37:12.275Z,17.52
2022-11-23T13:43:08.733Z,17.23
2022-11-23T13:45:48.711Z,17.07
2022-11-23T13:51:27.677Z,16.93
2022-11-23T13:54:07.557Z,16.85
2022-11-23T13:56:56.623Z,16.87
2022-11-23T13:59:39.700Z,16.88
2022-11-23T14:06:03.933Z,16.77
2022-11-23T14:09:18.584Z,16.75
2022-11-23T14:15:16.848Z,16.72
2022-11-23T14:18:10.641Z,16.85
2022-11-23T14:21:11.709Z,17.18
2022-11-23T14:24:44.818Z,17.48
2022-11-23T14:27:47.977Z,17.65
2022-11-23T14:33:38.183Z,17.78
2022-11-23T14:36:21.869Z,17.57
2022-11-23T14:39:38.211Z,17.54
2022-11-23T14:42:15.382Z,17.55
2022-11-23T14:44:55.950Z,17.62
2022-11-23T14:47:41.297Z,17.66
2022-11-23T14:50:38.723Z,17.64
2022-11-23T14:53:15.835Z,17.60
2022-11-23T14:55:54.494Z,17.50
2022-11-23T14:58:28.162Z,17.45
2022-11-23T15:01:06.728Z,17.33
2022-11-23T15:03:52.393Z,17.25
2022-11-23T15:06:51.563Z,17.16
2022-11-23T15:09:55.453Z,17.25
2022-11-23T15:12:43.175Z,17.43
2022-11-23T15:15:24.611Z,17.56
2022-11-23T15:20:48.466Z,17.55
2022-11-23T15:23:49.649Z,17.43
2022-11-23T15:26:48.678Z,17.31
2022-11-23T15:29:36.095Z,17.16
2022-11-23T15:32:33.673Z,17.05
2022-11-23T15:35:22.261Z,16.99
2022-11-23T15:37:59.238Z,16.95
2022-11-23T15:40:35.433Z,16.91
2022-11-23T15:43:12.302Z,16.89
2022-11-23T15:46:21.547Z,16.72
2022-11-23T15:48:53.603Z,16.55
2022-11-23T15:51:37.614Z,16.41
2022-11-23T15:54:12.080Z,16.40
2022-11-23T15:56:51.546Z,16.44
2022-11-23T15:59:42.112Z,16.44
2022-11-23T16:02:17.392Z,16.48
2022-11-23T16:04:48.774Z,16.54
2022-11-23T16:07:26.316Z,16.64
2022-11-23T16:10:21.261Z,16.63
2022-11-23T16:13:03.638Z,16.62
2022-11-23T16:15:44.424Z,16.66
2022-11-23T16:18:52.715Z,16.67
2022-11-23T16:21:27.191Z,16.66
2022-11-23T16:24:04.331Z,16.68
2022-11-23T16:26:40.835Z,16.72
2022-11-23T16:29:27.705Z,16.73
2022-11-23T16:31:59.870Z,16.77
2022-11-23T16:34:34.675Z,16.76
2022-11-23T16:37:05.103Z,16.74
2022-11-23T16:39:36.430Z,16.68
2022-11-23T16:42:09.292Z,16.73
2022-11-23T16:44:52.935Z,16.61
2022-11-23T16:47:29.064Z,16.17
2022-11-23T16:50:02.487Z,15.70
2022-11-23T16:52:31.929Z,15.42
2022-11-23T16:55:00.727Z,15.25
2022-11-23T16:57:32.520Z,15.10
2022-11-23T17:00:11.329Z,15.09
2022-11-23T17:02:41.289Z,15.12
2022-11-23T17:05:19.931Z,15.18
2022-11-23T17:07:51.661Z,15.31
2022-11-23T17:10:22.612Z,15.39
2022-11-23T17:12:54.740Z,15.51
2022-11-23T17:15:26.450Z,15.64
2022-11-23T17:17:57.018Z,15.69
2022-11-23T17:20:25.876Z,15.80
2022-11-23T17:23:00.467Z,15.85
2022-11-23T17:28:38.600Z,15.93
2022-11-23T17:31:12.504Z,15.99
2022-11-23T17:33:49.560Z,15.98
2022-11-23T17:36:28.126Z,15.97
2022-11-23T17:38:59.501Z,15.89
2022-11-23T17:41:31.683Z,15.97
2022-11-23T17:44:23.289Z,15.91
2022-11-23T17:47:30.049Z,15.92
2022-11-23T17:50:09.316Z,15.94
2022-11-23T17:53:05.864Z,15.85
2022-11-23T17:56:05.665Z,15.91
2022-11-23T17:58:40.841Z,15.92
2022-11-23T18:01:17.355Z,16.01
2022-11-23T18:04:27.524Z,15.94
2022-11-23T18:07:20.569Z,16.01
2022-11-23T18:10:00.677Z,16.04
2022-11-23T18:12:36.243Z,15.94
2022-11-23T18:15:24.980Z,16.02
2022-11-23T18:18:01.528Z,16.04
2022-11-23T18:20:43.869Z,16.02
2022-11-23T18:23:12.810Z,16.00
2022-11-23T18:25:40.982Z,16.02
2022-11-23T18:28:22.003Z,16.08
2022-11-23T18:30:52.372Z,16.05
2022-11-23T18:33:21.849Z,16.08
2022-11-23T18:36:10.573Z,16.09
2022-11-23T18:38:43.140Z,16.02
2022-11-23T18:41:12.133Z,16.05
2022-11-23T18:43:41.140Z,16.06
2022-11-23T18:49:05.630Z,16.06
2022-11-23T18:51:57.481Z,16.09
2022-11-23T18:54:35.891Z,16.06
2022-11-23T18:57:04.352Z,16.08
2022-11-23T18:59:58.301Z,16.10
2022-11-23T19:02:27.302Z,16.08
2022-11-23T19:04:57.189Z,16.12
2022-11-23T19:07:27.842Z,16.08
2022-11-23T19:10:03.064Z,16.09
2022-11-23T19:12:32.001Z,15.80
2022-11-23T19:15:01.014Z,15.30
2022-11-23T19:20:27.854Z,14.41
2022-11-23T19:23:12.785Z,14.30
2022-11-23T19:25:41.442Z,14.23
2022-11-23T19:28:10.109Z,14.33
2022-11-23T19:30:39.304Z,14.48
2022-11-23T19:33:11.282Z,14.62
2022-11-23T19:35:57.429Z,14.83
2022-11-23T19:38:37.795Z,15.04
2022-11-23T19:41:30.497Z,15.19
2022-11-23T19:44:02.004Z,15.39
2022-11-23T19:46:45.516Z,15.47
2022-11-23T19:52:05.337Z,15.68
2022-11-23T19:54:35.242Z,15.73
2022-11-23T19:57:03.415Z,15.75
2022-11-23T19:59:35.326Z,15.75
2022-11-23T20:02:17.106Z,15.77
2022-11-23T20:04:49.135Z,15.86
2022-11-23T20:07:21.630Z,15.89
2022-11-23T20:10:07.979Z,15.94
2022-11-23T20:12:37.550Z,15.93
2022-11-23T20:15:09.690Z,15.79
2022-11-23T20:17:38.297Z,15.34
2022-11-23T20:20:08.073Z,14.82
2022-11-23T20:22:38.941Z,14.43
2022-11-23T20:25:16.690Z,14.26
2022-11-23T20:28:07.510Z,14.06
2022-11-23T20:33:24.781Z,13.90
2022-11-23T20:35:57.239Z,13.78
2022-11-23T20:38:26.089Z,13.63
2022-11-23T20:41:01.913Z,13.59
2022-11-23T20:43:29.967Z,13.47
2022-11-23T20:46:02.350Z,13.28
2022-11-23T20:48:44.087Z,13.17
2022-11-23T20:51:24.201Z,13.10
2022-11-23T20:54:08.464Z,13.03
2022-11-23T20:56:41.506Z,12.82
2022-11-23T20:59:10.333Z,12.65
2022-11-23T21:01:41.043Z,12.43
2022-11-23T21:04:10.481Z,12.20
2022-11-23T21:06:40.300Z,12.13
2022-11-23T21:09:11.455Z,12.05
2022-11-23T21:12:02.214Z,12.05
2022-11-23T21:14:37.038Z,12.11
2022-11-23T21:17:06.526Z,12.19
2022-11-23T21:19:36.586Z,12.30
2022-11-23T21:22:07.623Z,12.37
2022-11-23T21:24:37.022Z,12.41
2022-11-23T21:27:13.530Z,12.50
2022-11-23T21:29:49.418Z,12.60
2022-11-23T21:32:23.824Z,12.69
2022-11-23T21:35:14.653Z,12.85
2022-11-23T21:37:52.749Z,13.02
2022-11-23T21:40:32.788Z,13.17
2022-11-23T21:43:17.395Z,13.39
2022-11-23T21:46:18.568Z,13.56
2022-11-23T21:52:04.569Z,14.00
2022-11-23T21:57:49.317Z,14.22
2022-11-23T22:00:31.035Z,14.29
2022-11-23T22:06:27.208Z,14.52
2022-11-23T22:09:10.281Z,14.58
2022-11-23T22:12:03.276Z,14.69
2022-11-23T22:14:35.742Z,14.75
2022-11-23T22:17:21.934Z,14.83
2022-11-23T22:33:05.738Z,14.92
2022-11-23T22:35:49.204Z,14.96
2022-11-23T22:44:58.012Z,15.10
2022-11-23T22:47:34.129Z,15.14
2022-11-23T22:53:45.660Z,15.16
2022-11-23T22:56:33.373Z,15.25
2022-11-23T22:59:08.555Z,15.21
2022-11-23T23:04:47.706Z,15.37
2022-11-23T23:07:38.297Z,15.34
2022-11-23T23:13:20.761Z,15.01
2022-11-23T23:19:12.643Z,14.91
2022-11-23T23:22:16.864Z,14.93
2022-11-23T23:25:07.637Z,14.97
2022-11-23T23:28:28.343Z,15.00
2022-11-23T23:31:42.037Z,15.02
2022-11-23T23:44:02.000Z,15.10
2022-11-23T23:46:46.871Z,15.16
2022-11-23T23:49:18.799Z,15.20
2022-11-23T23:52:23.125Z,15.22
